createdAt,value
2022-08-05T00:04:59.225Z,22.84
2022-08-05T00:10:02.029Z,22.85
2022-08-05T00:15:53.915Z,22.82
2022-08-05T00:20:29.950Z,22.82
2022-08-05T00:25:45.393Z,22.86
2022-08-05T00:30:52.064Z,22.84
2022-08-05T00:36:16.062Z,22.75
2022-08-05T00:41:52.232Z,22.50
2022-08-05T00:46:54.260Z,22.51
2022-08-05T00:52:08.243Z,22.53
2022-08-05T00:57:11.151Z,22.65
2022-08-05T01:02:13.957Z,22.73
2022-08-05T01:07:20.838Z,22.75
2022-08-05T01:12:29.774Z,22.73
2022-08-05T01:17:40.222Z,22.74
2022-08-05T01:22:59.701Z,22.68
2022-08-05T01:28:28.988Z,22.58
2022-08-05T01:33:36.775Z,22.47
2022-08-05T01:38:41.028Z,22.35
2022-08-05T01:43:46.826Z,22.31
2022-08-05T01:48:54.412Z,22.36
2022-08-05T01:53:58.903Z,22.44
2022-08-05T01:59:05.815Z,22.47
2022-08-05T02:04:11.890Z,22.47
2022-08-05T02:09:16.483Z,22.44
2022-08-05T02:14:31.960Z,22.32
2022-08-05T02:19:41.358Z,22.24
2022-08-05T02:24:53.694Z,22.10
2022-08-05T02:30:02.021Z,22.02
2022-08-05T02:35:14.162Z,21.98
2022-08-05T02:40:18.359Z,21.89
2022-08-05T02:45:24.479Z,21.85
2022-08-05T02:50:29.562Z,21.77
2022-08-05T02:55:59.813Z,21.70
2022-08-05T03:01:00.509Z,21.58
2022-08-05T03:06:53.943Z,21.42
2022-08-05T03:11:54.671Z,21.40
2022-08-05T03:16:53.349Z,21.39
2022-08-05T03:21:56.429Z,21.37
2022-08-05T03:27:01.563Z,21.31
2022-08-05T03:32:07.681Z,21.27
2022-08-05T03:37:11.803Z,21.15
2022-08-05T03:42:17.196Z,21.15
2022-08-05T03:47:21.445Z,21.06
2022-08-05T03:52:38.383Z,21.08
2022-08-05T03:57:54.001Z,21.09
2022-08-05T04:03:01.267Z,21.13
2022-08-05T04:08:30.040Z,21.14
2022-08-05T04:13:51.211Z,21.06
2022-08-05T04:18:54.765Z,21.02
2022-08-05T04:24:06.290Z,20.96
2022-08-05T04:29:09.883Z,20.98
2022-08-05T04:34:31.729Z,21.06
2022-08-05T04:39:36.100Z,21.14
2022-08-05T04:44:39.188Z,21.09
2022-08-05T04:50:02.598Z,21.04
2022-08-05T04:55:14.442Z,21.10
2022-08-05T05:00:18.545Z,21.10
2022-08-05T05:05:29.101Z,21.14
2022-08-05T05:10:33.676Z,21.19
2022-08-05T05:15:57.320Z,21.18
2022-08-05T05:21:01.275Z,21.15
2022-08-05T05:26:04.226Z,21.20
2022-08-05T05:31:08.926Z,21.12
2022-08-05T05:36:13.495Z,20.93
2022-08-05T05:41:17.620Z,20.79
2022-08-05T05:46:21.770Z,20.88
2022-08-05T05:51:27.836Z,21.07
2022-08-05T05:56:34.755Z,21.23
2022-08-05T06:01:40.108Z,21.35
2022-08-05T06:06:47.477Z,21.33
2022-08-05T06:12:01.442Z,21.29
2022-08-05T06:17:22.372Z,21.33
2022-08-05T06:22:30.646Z,21.38
2022-08-05T06:28:09.330Z,21.34
2022-08-05T06:32:59.898Z,21.16
2022-08-05T06:38:11.279Z,21.16
2022-08-05T06:43:57.903Z,21.28
2022-08-05T06:48:55.852Z,21.33
2022-08-05T06:54:03.989Z,21.39
2022-08-05T06:59:09.668Z,21.50
2022-08-05T07:04:14.768Z,21.57
2022-08-05T07:09:24.907Z,21.60
2022-08-05T07:14:45.495Z,21.64
2022-08-05T07:20:31.435Z,21.66
2022-08-05T07:25:54.504Z,21.63
2022-08-05T07:30:38.883Z,21.52
2022-08-05T07:36:02.191Z,21.49
2022-08-05T07:41:35.216Z,21.49
2022-08-05T07:46:33.829Z,21.28
2022-08-05T07:51:41.049Z,21.28
2022-08-05T07:57:13.282Z,21.17
2022-08-05T08:07:39.465Z,21.26
2022-08-05T08:12:59.035Z,21.24
2022-08-05T08:18:02.927Z,21.11
2022-08-05T08:23:11.599Z,21.07
2022-08-05T08:28:36.293Z,21.15
2022-08-05T08:33:41.176Z,21.18
2022-08-05T08:38:44.041Z,21.15
2022-08-05T08:45:22.491Z,21.10
2022-08-05T08:50:22.251Z,21.17
2022-08-05T08:54:48.172Z,21.28
2022-08-05T08:59:52.403Z,21.40
2022-08-05T09:05:17.267Z,21.38
2022-08-05T09:10:21.819Z,21.31
2022-08-05T09:15:32.359Z,21.45
2022-08-05T09:20:41.782Z,21.69
2022-08-05T09:26:00.326Z,21.98
2022-08-05T09:31:22.199Z,22.11
2022-08-05T09:36:56.439Z,22.10
2022-08-05T09:42:03.986Z,22.12
2022-08-05T09:47:12.652Z,22.03
2022-08-05T09:52:20.136Z,21.92
2022-08-05T09:57:39.675Z,21.76
2022-08-05T10:02:49.641Z,21.54
2022-08-05T10:08:35.973Z,21.35
2022-08-05T10:13:31.562Z,20.99
2022-08-05T10:18:48.611Z,20.73
2022-08-05T10:24:00.549Z,20.53
2022-08-05T10:29:04.017Z,20.49
2022-08-05T10:34:09.424Z,20.32
2022-08-05T10:39:24.257Z,20.15
2022-08-05T10:44:30.449Z,20.20
2022-08-05T10:49:48.755Z,20.16
2022-08-05T10:55:05.752Z,20.15
2022-08-05T11:00:17.935Z,20.14
2022-08-05T11:05:26.280Z,20.04
2022-08-05T11:10:33.151Z,20.09
2022-08-05T11:16:00.576Z,20.04
2022-08-05T11:21:06.432Z,20.09
2022-08-05T11:26:29.086Z,20.11
2022-08-05T11:31:57.537Z,20.10
2022-08-05T11:37:01.310Z,20.10
2022-08-05T11:42:11.190Z,20.23
2022-08-05T11:47:48.172Z,20.33
2022-08-05T11:52:53.176Z,20.56
2022-08-05T11:58:10.936Z,20.67
2022-08-05T12:03:23.825Z,20.76
2022-08-05T12:08:32.972Z,20.96
2022-08-05T12:13:48.745Z,20.99
2022-08-05T12:18:53.550Z,21.01
2022-08-05T12:24:04.936Z,21.11
2022-08-05T12:29:16.230Z,21.13
2022-08-05T12:34:23.776Z,21.05
2022-08-05T12:39:37.278Z,21.02
2022-08-05T12:44:43.117Z,21.08
2022-08-05T12:50:04.139Z,21.11
2022-08-05T12:55:22.541Z,21.09
2022-08-05T13:02:01.381Z,21.00
2022-08-05T13:05:50.602Z,20.86
2022-08-05T13:11:01.009Z,20.77
2022-08-05T13:16:04.348Z,20.61
2022-08-05T13:21:09.882Z,20.43
2022-08-05T13:26:16.747Z,19.72
2022-08-05T13:31:19.937Z,19.30
2022-08-05T13:36:43.629Z,19.05
2022-08-05T13:41:47.828Z,18.90
2022-08-05T13:47:04.860Z,18.83
2022-08-05T13:52:12.827Z,18.43
2022-08-05T13:57:17.735Z,18.27
2022-08-05T14:02:26.586Z,18.03
2022-08-05T14:08:00.419Z,18.00
2022-08-05T14:12:58.717Z,17.95
2022-08-05T14:18:03.846Z,17.95
2022-08-05T14:23:06.915Z,17.95
2022-08-05T14:28:15.998Z,17.89
2022-08-05T14:33:32.530Z,17.94
2022-08-05T14:38:53.613Z,18.18
2022-08-05T14:44:09.509Z,18.39
2022-08-05T14:49:17.530Z,18.48
2022-08-05T14:54:28.818Z,18.47
2022-08-05T14:59:35.711Z,18.50
2022-08-05T15:04:38.745Z,18.42
2022-08-05T15:09:51.430Z,18.36
2022-08-05T15:14:58.766Z,18.57
2022-08-05T15:20:01.604Z,18.51
2022-08-05T15:25:13.570Z,18.49
2022-08-05T15:30:18.492Z,18.76
2022-08-05T15:35:21.838Z,18.89
2022-08-05T15:41:01.277Z,18.77
2022-08-05T15:46:00.565Z,18.70
2022-08-05T15:51:05.906Z,18.61
2022-08-05T15:56:14.111Z,18.58
2022-08-05T16:01:19.165Z,18.52
2022-08-05T16:06:23.468Z,18.43
2022-08-05T16:11:42.572Z,18.38
2022-08-05T16:16:48.351Z,18.34
2022-08-05T16:22:00.241Z,18.24
2022-08-05T16:27:07.382Z,18.26
2022-08-05T16:32:11.715Z,18.37
2022-08-05T16:38:01.704Z,18.46
2022-08-05T16:42:37.399Z,18.63
2022-08-05T16:47:53.343Z,18.69
2022-08-05T16:52:57.092Z,18.81
2022-08-05T16:58:01.621Z,18.78
2022-08-05T17:03:09.269Z,18.74
2022-08-05T17:08:36.100Z,18.73
2022-08-05T17:13:46.878Z,18.71
2022-08-05T17:18:51.143Z,18.76
2022-08-05T17:24:04.754Z,18.82
2022-08-05T17:29:11.175Z,18.84
2022-08-05T17:34:17.768Z,18.84
2022-08-05T17:39:23.771Z,18.85
2022-08-05T17:44:32.587Z,18.84
2022-08-05T17:49:52.055Z,18.92
2022-08-05T17:54:59.697Z,18.93
2022-08-05T18:00:04.718Z,18.95
2022-08-05T18:05:10.644Z,18.95
2022-08-05T18:10:20.443Z,18.92
2022-08-05T18:15:27.089Z,18.88
2022-08-05T18:20:32.598Z,18.84
2022-08-05T18:25:35.877Z,18.77
2022-08-05T18:30:40.255Z,18.73
2022-08-05T18:36:00.696Z,18.66
2022-08-05T18:41:57.703Z,18.61
2022-08-05T18:46:30.356Z,18.58
2022-08-05T18:52:05.107Z,18.50
2022-08-05T18:57:15.226Z,18.39
2022-08-05T19:02:38.125Z,18.33
2022-08-05T19:07:45.880Z,18.23
2022-08-05T19:12:49.945Z,18.18
2022-08-05T19:18:08.355Z,18.14
2022-08-05T19:24:03.795Z,18.11
2022-08-05T19:28:41.493Z,18.05
2022-08-05T19:33:48.313Z,18.02
2022-08-05T19:39:01.689Z,18.02
2022-08-05T19:44:13.818Z,17.94
2022-08-05T19:49:17.806Z,17.90
2022-08-05T20:00:44.539Z,17.81
2022-08-05T20:05:51.706Z,17.73
2022-08-05T20:10:55.148Z,17.62
2022-08-05T20:15:59.634Z,17.54
2022-08-05T20:21:04.489Z,17.45
2022-08-05T20:26:07.915Z,17.38
2022-08-05T20:31:21.665Z,17.32
2022-08-05T20:36:26.073Z,17.21
2022-08-05T20:41:43.748Z,17.13
2022-08-05T20:46:48.891Z,17.04
2022-08-05T20:51:53.646Z,17.01
2022-08-05T20:56:57.246Z,16.98
2022-08-05T21:02:01.700Z,16.91
2022-08-05T21:07:08.922Z,16.84
2022-08-05T21:12:12.115Z,16.76
2022-08-05T21:17:21.496Z,16.69
2022-08-05T21:22:25.388Z,16.61
2022-08-05T21:27:28.335Z,16.53
2022-08-05T21:32:43.178Z,16.44
2022-08-05T21:37:47.413Z,16.37
2022-08-05T21:42:56.265Z,16.29
2022-08-05T21:48:06.274Z,16.22
2022-08-05T21:53:16.656Z,16.22
2022-08-05T21:58:24.824Z,16.15
2022-08-05T22:03:52.752Z,16.06
2022-08-05T22:08:56.858Z,15.92
2022-08-05T22:14:19.802Z,15.83
2022-08-05T22:20:00.227Z,15.80
2022-08-05T22:25:04.596Z,15.75
2022-08-05T22:30:13.150Z,15.69
2022-08-05T22:35:17.662Z,15.63
2022-08-05T22:40:22.036Z,15.59
2022-08-05T22:45:26.342Z,15.63
2022-08-05T22:50:30.549Z,15.63
2022-08-05T22:55:37.164Z,15.63
2022-08-05T23:00:57.065Z,15.62
2022-08-05T23:06:01.562Z,15.55
2022-08-05T23:11:04.931Z,15.52
2022-08-05T23:16:11.657Z,15.48
2022-08-05T23:21:16.517Z,15.40
2022-08-05T23:26:19.951Z,15.32
2022-08-05T23:31:24.489Z,15.24
2022-08-05T23:36:28.648Z,15.10
2022-08-05T23:41:48.440Z,15.01
2022-08-05T23:46:51.725Z,14.96
2022-08-05T23:52:13.566Z,14.90
2022-08-05T23:57:19.327Z,14.81
